createdAt,value
2023-04-17T05:49:19.784Z,24.02
2023-04-17T05:51:47.102Z,19.10
2023-04-17T05:54:14.315Z,26.42
2023-04-17T05:56:41.634Z,22.52
2023-04-17T05:59:08.805Z,26.08
2023-04-17T06:01:36.321Z,24.27
2023-04-17T06:04:04.101Z,24.10
2023-04-17T06:06:31.804Z,28.25
2023-04-17T06:08:59.219Z,24.63
2023-04-17T06:11:27.152Z,25.48
2023-04-17T06:13:54.521Z,26.13
2023-04-17T06:16:21.893Z,29.38
2023-04-17T06:18:49.390Z,28.25
2023-04-17T06:21:17.849Z,34.80
2023-04-17T06:23:45.510Z,34.83
2023-04-17T06:26:13.137Z,28.67
2023-04-17T06:28:40.442Z,31.70
2023-04-17T06:31:07.749Z,30.55
2023-04-17T06:33:35.001Z,34.70
2023-04-17T06:36:02.858Z,38.05
2023-04-17T06:38:30.165Z,27.10
2023-04-17T06:40:57.337Z,31.40
2023-04-17T06:43:24.588Z,29.52
2023-04-17T06:45:51.858Z,31.65
2023-04-17T06:48:19.106Z,31.67
2023-04-17T06:50:46.873Z,33.08
2023-04-17T06:53:14.193Z,26.02
2023-04-17T06:55:41.354Z,30.80
2023-04-17T06:58:09.085Z,26.42
2023-04-17T07:00:36.365Z,28.42
2023-04-17T07:03:03.739Z,28.05
2023-04-17T07:05:31.324Z,29.50
2023-04-17T07:07:58.447Z,31.85
2023-04-17T07:10:25.791Z,33.65
2023-04-17T07:12:52.987Z,30.92
2023-04-17T07:15:20.206Z,27.02
2023-04-17T07:17:47.983Z,30.30
2023-04-17T07:20:15.228Z,29.38
2023-04-17T07:22:43.178Z,31.40
2023-04-17T07:25:10.368Z,33.15
2023-04-17T07:27:38.394Z,31.63
2023-04-17T07:30:08.017Z,31.15
2023-04-17T07:32:36.150Z,29.95
2023-04-17T07:35:04.619Z,29.20
2023-04-17T07:37:32.984Z,31.55
2023-04-17T07:40:00.213Z,31.20
2023-04-17T07:42:28.464Z,31.63
2023-04-17T07:44:56.099Z,26.63
2023-04-17T07:47:24.021Z,29.73
2023-04-17T07:49:51.385Z,29.48
2023-04-17T07:52:18.744Z,30.42
2023-04-17T07:54:46.028Z,30.60
2023-04-17T07:57:14.975Z,24.52
2023-04-17T07:59:42.289Z,24.05
2023-04-17T08:02:09.618Z,31.58
2023-04-17T08:04:40.382Z,31.67
2023-04-17T08:07:10.622Z,30.92
2023-04-17T08:09:37.934Z,29.35
2023-04-17T08:12:06.004Z,28.67
2023-04-17T08:14:33.262Z,33.40
2023-04-17T08:17:00.915Z,31.08
2023-04-17T08:19:29.845Z,31.50
2023-04-17T08:22:04.776Z,35.15
2023-04-17T08:24:32.031Z,28.17
2023-04-17T08:26:59.360Z,28.38
2023-04-17T08:29:26.574Z,39.47
2023-04-17T08:32:10.426Z,26.83
2023-04-17T08:34:41.341Z,29.00
2023-04-17T08:37:08.511Z,28.75
2023-04-17T08:39:35.780Z,26.42
2023-04-17T08:42:13.997Z,30.33
2023-04-17T08:44:43.908Z,27.42
2023-04-17T08:47:12.596Z,28.23
2023-04-17T08:49:43.273Z,27.75
2023-04-17T08:52:10.908Z,25.20
2023-04-17T08:54:38.981Z,24.67
2023-04-17T08:57:06.490Z,24.35
2023-04-17T08:59:33.999Z,27.73
2023-04-17T09:02:04.675Z,22.65
2023-04-17T09:04:40.034Z,25.83
2023-04-17T09:07:08.685Z,29.92
2023-04-17T09:09:53.306Z,24.73
2023-04-17T09:12:21.975Z,27.67
2023-04-17T09:14:49.615Z,22.17
2023-04-17T09:17:19.020Z,24.48
2023-04-17T09:20:12.232Z,25.38
2023-04-17T09:22:40.922Z,25.33
2023-04-17T09:25:18.440Z,22.00
2023-04-17T09:27:46.449Z,22.05
2023-04-17T09:30:14.067Z,24.27
2023-04-17T09:32:41.494Z,23.38
2023-04-17T09:35:09.309Z,26.48
2023-04-17T09:37:53.952Z,23.10
2023-04-17T09:40:22.913Z,19.27
2023-04-17T09:43:03.823Z,14.68
2023-04-17T09:45:40.211Z,15.48
2023-04-17T09:48:13.512Z,17.63
2023-04-17T09:50:40.931Z,14.48
2023-04-17T09:53:08.725Z,15.55
2023-04-17T09:55:37.688Z,18.85
2023-04-17T09:58:06.377Z,16.63
2023-04-17T10:00:33.689Z,16.20
2023-04-17T10:03:01.154Z,15.93
2023-04-17T10:05:32.455Z,13.80
2023-04-17T10:07:59.997Z,15.15
2023-04-17T10:10:32.391Z,27.33
2023-04-17T10:13:01.806Z,15.55
2023-04-17T10:15:29.696Z,14.50
2023-04-17T10:18:23.845Z,18.17
2023-04-17T10:20:53.324Z,13.88
2023-04-17T10:23:32.087Z,17.10
2023-04-17T10:26:34.633Z,15.50
2023-04-17T10:29:02.037Z,16.17
2023-04-17T10:32:07.251Z,14.10
2023-04-17T10:34:35.956Z,15.60
2023-04-17T10:37:04.962Z,21.42
2023-04-17T10:40:01.670Z,15.10
2023-04-17T10:42:30.174Z,15.98
2023-04-17T10:44:59.674Z,19.48
2023-04-17T10:47:34.432Z,17.98
2023-04-17T10:50:07.566Z,12.50
2023-04-17T10:52:34.855Z,17.40
2023-04-17T10:55:06.464Z,15.57
2023-04-17T10:57:53.108Z,15.75
2023-04-17T11:00:49.965Z,13.77
2023-04-17T11:03:18.374Z,12.93
2023-04-17T11:05:47.209Z,12.63
2023-04-17T11:08:14.947Z,15.98
2023-04-17T11:10:42.192Z,17.63
2023-04-17T11:13:10.426Z,14.20
2023-04-17T11:15:37.698Z,15.57
2023-04-17T11:18:05.068Z,12.95
2023-04-17T11:20:33.721Z,16.90
2023-04-17T11:23:04.957Z,14.65
2023-04-17T11:25:34.102Z,14.52
2023-04-17T11:28:05.008Z,14.93
2023-04-17T11:30:34.643Z,13.23
2023-04-17T11:33:06.755Z,12.80
2023-04-17T11:35:36.177Z,16.17
2023-04-17T11:38:13.522Z,15.07
2023-04-17T11:40:45.484Z,11.77
2023-04-17T11:43:13.499Z,11.82
2023-04-17T11:45:42.691Z,17.30
2023-04-17T11:48:12.076Z,12.30
2023-04-17T11:50:40.396Z,14.20
2023-04-17T11:53:07.698Z,16.73
2023-04-17T11:55:35.643Z,14.07
2023-04-17T11:58:06.410Z,12.13
2023-04-17T12:00:34.286Z,12.95
2023-04-17T12:03:03.321Z,13.68
2023-04-17T12:05:31.504Z,13.70
2023-04-17T12:08:04.561Z,14.32
2023-04-17T12:10:41.938Z,12.98
2023-04-17T12:13:12.224Z,12.02
2023-04-17T12:15:39.470Z,14.23
2023-04-17T12:18:08.579Z,15.55
2023-04-17T12:20:36.846Z,13.68
2023-04-17T12:23:05.684Z,13.50
2023-04-17T12:25:33.992Z,17.33
2023-04-17T12:28:04.824Z,15.65
2023-04-17T12:30:35.857Z,14.80
2023-04-17T12:33:03.217Z,17.40
2023-04-17T12:35:30.832Z,17.42
2023-04-17T12:37:58.140Z,19.23
2023-04-17T12:40:25.381Z,16.88
2023-04-17T12:42:52.621Z,19.95
2023-04-17T12:45:20.104Z,15.20
2023-04-17T12:47:47.458Z,20.75
2023-04-17T12:50:14.824Z,16.98
2023-04-17T12:52:42.076Z,20.02
2023-04-17T12:55:09.876Z,16.85
2023-04-17T12:57:37.333Z,16.60
2023-04-17T13:00:09.361Z,14.70
2023-04-17T13:02:37.161Z,15.43
2023-04-17T13:05:07.371Z,15.00
2023-04-17T13:07:34.757Z,14.13
2023-04-17T13:10:02.695Z,15.57
2023-04-17T13:12:29.961Z,17.58
2023-04-17T13:14:57.488Z,14.82
2023-04-17T13:17:25.415Z,21.42
2023-04-17T13:19:52.638Z,21.90
2023-04-17T13:22:20.695Z,18.50
2023-04-17T13:24:49.105Z,20.98
2023-04-17T13:27:16.889Z,18.90
2023-04-17T13:29:44.419Z,22.15
2023-04-17T13:32:11.622Z,19.83
2023-04-17T13:34:38.949Z,17.48
2023-04-17T13:37:07.266Z,24.58
2023-04-17T13:39:34.816Z,21.75
2023-04-17T13:42:02.463Z,21.25
2023-04-17T13:44:29.694Z,23.60
2023-04-17T13:46:56.883Z,22.73
2023-04-17T13:49:24.205Z,22.05
2023-04-17T13:51:51.511Z,21.65
2023-04-17T13:54:18.976Z,27.55
2023-04-17T13:56:46.302Z,28.77
2023-04-17T13:59:13.911Z,24.05
2023-04-17T14:01:41.740Z,24.30
2023-04-17T14:04:09.568Z,28.88
2023-04-17T14:06:37.045Z,25.10
2023-04-17T14:09:05.796Z,27.48
2023-04-17T14:11:33.311Z,31.02
2023-04-17T14:14:00.782Z,29.30
2023-04-17T14:16:28.764Z,26.00
2023-04-17T14:18:57.867Z,25.42
2023-04-17T14:21:27.711Z,29.38
2023-04-17T14:23:56.770Z,30.05
2023-04-17T14:26:24.223Z,27.17
2023-04-17T14:28:51.354Z,26.42
2023-04-17T14:31:18.620Z,28.42
2023-04-17T14:33:46.351Z,25.40
2023-04-17T14:36:14.623Z,23.58
2023-04-17T14:38:41.941Z,26.73
2023-04-17T14:41:09.142Z,25.60
2023-04-17T14:43:36.304Z,28.75
2023-04-17T14:46:03.546Z,28.73
2023-04-17T14:48:32.722Z,24.25
2023-04-17T14:51:02.001Z,25.95
2023-04-17T14:53:29.301Z,23.25
2023-04-17T14:55:56.483Z,25.17
2023-04-17T14:58:23.637Z,25.88
2023-04-17T15:00:50.926Z,25.80
2023-04-17T15:03:18.392Z,22.58
2023-04-17T15:05:46.320Z,24.98
2023-04-17T15:08:13.526Z,26.95
2023-04-17T15:10:50.864Z,23.30
2023-04-17T15:13:18.907Z,26.05
2023-04-17T15:15:46.262Z,22.33
2023-04-17T15:18:13.731Z,21.90
2023-04-17T15:20:40.987Z,23.77
2023-04-17T15:23:08.212Z,25.95
2023-04-17T15:25:35.476Z,23.90
2023-04-17T15:28:02.785Z,25.70
2023-04-17T15:30:30.204Z,28.65
2023-04-17T15:32:57.495Z,26.60
2023-04-17T15:35:24.698Z,23.90
2023-04-17T15:37:51.995Z,21.58
2023-04-17T15:40:19.196Z,25.13
2023-04-17T15:42:47.133Z,25.80
2023-04-17T15:45:14.453Z,24.95
2023-04-17T15:47:41.678Z,24.02
2023-04-17T15:50:09.525Z,24.70
2023-04-17T15:52:36.641Z,22.60
2023-04-17T16:02:27.497Z,20.17
2023-04-17T16:04:54.883Z,20.65
2023-04-17T16:07:23.795Z,20.80
2023-04-17T16:09:51.137Z,22.85
2023-04-17T16:12:18.546Z,21.50
2023-04-17T16:14:47.282Z,19.20
2023-04-17T16:17:14.487Z,16.42
2023-04-17T16:19:41.604Z,15.63
2023-04-17T16:22:08.869Z,18.70
2023-04-17T16:24:36.259Z,17.20
2023-04-17T16:27:04.256Z,15.65
2023-04-17T16:29:31.960Z,14.63
2023-04-17T16:31:59.566Z,15.70
2023-04-17T16:34:28.343Z,14.02
2023-04-17T16:36:55.545Z,14.35
2023-04-17T16:39:22.742Z,13.90
2023-04-17T16:41:52.200Z,17.63
2023-04-17T16:44:19.593Z,17.40
2023-04-17T16:47:09.399Z,15.40
2023-04-17T16:49:36.913Z,17.52
2023-04-17T16:52:04.268Z,18.77
2023-04-17T16:54:31.836Z,20.83
2023-04-17T16:56:59.128Z,18.65
2023-04-17T16:59:26.887Z,17.58
2023-04-17T17:01:54.067Z,17.13
2023-04-17T17:04:21.270Z,17.75
2023-04-17T17:06:48.526Z,17.77
2023-04-17T17:09:15.841Z,19.25
2023-04-17T17:11:43.466Z,21.85
2023-04-17T17:14:10.858Z,18.63
2023-04-17T17:16:38.091Z,18.80
2023-04-17T17:19:06.028Z,17.58
2023-04-17T17:21:33.473Z,16.67
2023-04-17T17:24:03.097Z,18.98
2023-04-17T17:26:30.254Z,21.55
2023-04-17T17:28:57.518Z,16.65
2023-04-17T17:31:24.748Z,16.85
2023-04-17T17:33:54.010Z,18.00
2023-04-17T17:36:24.273Z,17.05
2023-04-17T17:38:55.777Z,15.98
2023-04-17T17:41:23.874Z,17.88
2023-04-17T17:43:51.841Z,17.33
2023-04-17T17:46:22.191Z,18.10
2023-04-17T17:48:49.930Z,17.02
2023-04-17T17:51:17.365Z,18.27
2023-04-17T17:53:44.745Z,17.17
2023-04-17T17:56:11.907Z,18.42
2023-04-17T17:58:39.177Z,16.88
2023-04-17T18:01:06.936Z,18.98
2023-04-17T18:03:37.040Z,22.08
2023-04-17T18:06:04.726Z,27.45
2023-04-17T18:08:32.290Z,20.05
2023-04-17T18:11:02.275Z,21.98
2023-04-17T18:13:29.689Z,18.45
2023-04-17T18:15:56.856Z,18.02
2023-04-17T18:18:24.058Z,16.77
2023-04-17T18:20:51.359Z,16.95
2023-04-17T18:23:18.673Z,18.90
2023-04-17T18:25:45.874Z,17.48
2023-04-17T18:28:16.165Z,16.77
2023-04-17T18:30:43.818Z,16.02
2023-04-17T18:33:11.152Z,17.20
2023-04-17T18:35:38.283Z,21.33
2023-04-17T18:38:06.041Z,23.15
2023-04-17T18:40:33.440Z,16.30
2023-04-17T18:43:00.845Z,19.35
2023-04-17T18:45:28.252Z,17.75
2023-04-17T18:47:55.532Z,17.58
2023-04-17T18:50:22.758Z,20.17
2023-04-17T18:52:51.227Z,19.08
2023-04-17T18:55:18.801Z,20.63
2023-04-17T18:57:46.216Z,22.73
2023-04-17T19:00:13.878Z,21.20
2023-04-17T19:02:41.294Z,20.65
2023-04-17T19:05:09.060Z,22.90
2023-04-17T19:07:36.259Z,21.40
2023-04-17T19:10:04.358Z,22.42
2023-04-17T19:12:31.730Z,28.77
2023-04-17T19:14:58.962Z,22.05
2023-04-17T19:17:26.128Z,23.20
2023-04-17T19:19:53.307Z,23.23
2023-04-17T19:22:20.524Z,23.85
2023-04-17T19:24:50.242Z,24.60
2023-04-17T19:27:17.624Z,22.27
2023-04-17T19:29:44.838Z,24.85
2023-04-17T19:32:12.947Z,21.05
2023-04-17T19:34:40.133Z,22.48
2023-04-17T19:37:07.401Z,22.50
2023-04-17T19:39:34.713Z,22.35
2023-04-17T19:42:03.276Z,21.85
2023-04-17T19:44:30.623Z,24.45
2023-04-17T19:46:57.891Z,23.90
2023-04-17T19:49:25.373Z,21.55
2023-04-17T19:51:52.573Z,21.35
2023-04-17T19:54:19.771Z,24.27
2023-04-17T19:56:47.224Z,19.60
2023-04-17T19:59:14.840Z,26.45
2023-04-17T20:05:23.311Z,27.92
2023-04-17T20:07:50.592Z,24.05
2023-04-17T20:10:18.115Z,26.23
2023-04-17T20:12:45.318Z,22.20
2023-04-17T20:15:12.713Z,26.75
2023-04-17T20:17:40.049Z,24.80
2023-04-17T20:20:07.908Z,21.38
2023-04-17T20:22:35.866Z,29.25
2023-04-17T20:25:03.392Z,24.20
2023-04-17T20:27:30.612Z,23.20
2023-04-17T20:29:57.917Z,24.65
2023-04-17T20:32:25.128Z,23.17
2023-04-17T20:34:52.405Z,24.80
2023-04-17T20:37:21.188Z,25.00
2023-04-17T20:39:49.739Z,24.88
2023-04-17T20:42:16.891Z,23.83
2023-04-17T20:44:44.128Z,26.75
2023-04-17T20:47:37.446Z,21.77
2023-04-17T20:50:06.397Z,23.52
2023-04-17T20:52:34.038Z,22.35
2023-04-17T20:55:02.217Z,25.60
2023-04-17T20:57:29.759Z,23.77
2023-04-17T20:59:56.973Z,24.77
2023-04-17T21:02:24.177Z,23.45
2023-04-17T21:04:51.534Z,23.13
2023-04-17T21:07:19.164Z,21.25
2023-04-17T21:09:46.471Z,22.70
2023-04-17T21:12:13.686Z,23.33
2023-04-17T21:14:43.104Z,25.92
2023-04-17T21:17:51.048Z,21.85
2023-04-17T21:20:18.320Z,25.13
2023-04-17T21:22:45.526Z,24.77
2023-04-17T21:25:12.815Z,23.98
2023-04-17T21:27:41.150Z,23.77
2023-04-17T21:30:10.586Z,20.02
2023-04-17T21:32:39.050Z,21.00
2023-04-17T21:35:06.808Z,20.42
2023-04-17T21:37:34.211Z,23.60
2023-04-17T21:40:01.863Z,22.73
2023-04-17T21:42:29.101Z,19.92
2023-04-17T21:44:56.285Z,22.08
2023-04-17T21:47:23.629Z,19.67
2023-04-17T21:49:50.961Z,18.92
2023-04-17T21:52:18.238Z,21.13
2023-04-17T21:54:45.777Z,22.50
2023-04-17T21:57:13.091Z,21.27
2023-04-17T21:59:40.505Z,22.77
2023-04-17T22:02:07.752Z,21.08
2023-04-17T22:04:35.252Z,21.80
2023-04-17T22:07:02.462Z,24.42
2023-04-17T22:09:29.655Z,23.27
2023-04-17T22:11:57.164Z,20.52
2023-04-17T22:14:24.373Z,20.73
2023-04-17T22:16:52.343Z,21.90
2023-04-17T22:19:19.590Z,21.55
2023-04-17T22:21:46.761Z,20.80
2023-04-17T22:24:14.145Z,21.10
2023-04-17T22:26:41.740Z,19.92
2023-04-17T22:29:08.931Z,20.52
2023-04-17T22:31:36.371Z,20.70
2023-04-17T22:34:03.850Z,24.65
2023-04-17T22:36:31.189Z,21.20
2023-04-17T22:38:58.454Z,23.00
2023-04-17T22:41:25.710Z,20.45
2023-04-17T22:43:52.899Z,21.63
2023-04-17T22:46:20.169Z,23.48
2023-04-17T22:48:49.616Z,22.88
2023-04-17T22:51:17.761Z,21.75
2023-04-17T22:53:44.991Z,27.05
2023-04-17T22:56:12.917Z,21.30
2023-04-17T22:58:40.315Z,22.75
2023-04-17T23:01:07.682Z,24.90
2023-04-17T23:03:35.280Z,24.35
2023-04-17T23:06:03.172Z,20.85
2023-04-17T23:08:30.986Z,22.98
2023-04-17T23:11:03.454Z,21.48
2023-04-17T23:13:31.647Z,25.00
2023-04-17T23:15:58.882Z,19.73
2023-04-17T23:18:26.147Z,23.98
2023-04-17T23:20:53.478Z,20.52
2023-04-17T23:23:20.656Z,22.85
2023-04-17T23:25:47.842Z,22.65
2023-04-17T23:28:15.107Z,23.73
2023-04-17T23:30:42.373Z,25.45
2023-04-17T23:33:09.796Z,22.88
2023-04-17T23:35:37.109Z,20.40
2023-04-17T23:38:04.441Z,21.33
2023-04-17T23:40:32.800Z,20.13
2023-04-17T23:43:00.084Z,25.13
2023-04-17T23:45:27.729Z,23.13
2023-04-17T23:47:54.971Z,21.27
2023-04-17T23:50:22.153Z,22.70
2023-04-17T23:52:49.463Z,24.42
2023-04-17T23:55:16.882Z,23.52
2023-04-17T23:57:44.020Z,23.88
